sensor_id;sensor_type;location;lat;lon;timestamp;temperature;humidity
14737;DHT22;7459;53.590;10.062;2022-08-23T00:01:56;21.10;99.90
14737;DHT22;7459;53.590;10.062;2022-08-23T00:04:27;21.10;99.90
14737;DHT22;7459;53.590;10.062;2022-08-23T00:06:55;21.10;99.90
14737;DHT22;7459;53.590;10.062;2022-08-23T00:09:23;21.10;99.90
14737;DHT22;7459;53.590;10.062;2022-08-23T00:12:12;21.10;99.90
14737;DHT22;7459;53.590;10.062;2022-08-23T00:14:44;21.10;99.90
14737;DHT22;7459;53.590;10.062;2022-08-23T00:17:13;21.10;99.90
14737;DHT22;7459;53.590;10.062;2022-08-23T00:19:39;21.10;99.90
14737;DHT22;7459;53.590;10.062;2022-08-23T00:22:07;21.00;99.90
14737;DHT22;7459;53.590;10.062;2022-08-23T00:24:34;21.00;99.90
14737;DHT22;7459;53.590;10.062;2022-08-23T00:27:14;21.00;99.90
14737;DHT22;7459;53.590;10.062;2022-08-23T00:29:54;21.00;99.90
14737;DHT22;7459;53.590;10.062;2022-08-23T00:32:27;21.00;99.90
14737;DHT22;7459;53.590;10.062;2022-08-23T00:34:57;21.00;99.90
14737;DHT22;7459;53.590;10.062;2022-08-23T00:37:24;21.00;99.90
14737;DHT22;7459;53.590;10.062;2022-08-23T00:39:51;21.00;99.90
14737;DHT22;7459;53.590;10.062;2022-08-23T00:42:35;21.00;99.90
14737;DHT22;7459;53.590;10.062;2022-08-23T00:48:32;21.00;99.90
14737;DHT22;7459;53.590;10.062;2022-08-23T00:53:49;20.90;99.90
14737;DHT22;7459;53.590;10.062;2022-08-23T00:56:20;20.90;99.90
14737;DHT22;7459;53.590;10.062;2022-08-23T00:58:47;20.90;99.90
14737;DHT22;7459;53.590;10.062;2022-08-23T01:01:23;20.90;99.90
14737;DHT22;7459;53.590;10.062;2022-08-23T01:03:52;20.90;99.90
14737;DHT22;7459;53.590;10.062;2022-08-23T01:06:28;20.90;99.90
14737;DHT22;7459;53.590;10.062;2022-08-23T01:09:08;20.90;99.90
14737;DHT22;7459;53.590;10.062;2022-08-23T01:11:54;20.90;99.90
14737;DHT22;7459;53.590;10.062;2022-08-23T01:17:18;20.90;99.90
14737;DHT22;7459;53.590;10.062;2022-08-23T01:19:51;20.80;99.90
14737;DHT22;7459;53.590;10.062;2022-08-23T01:22:53;20.80;99.90
14737;DHT22;7459;53.590;10.062;2022-08-23T01:25:23;20.80;99.90
14737;DHT22;7459;53.590;10.062;2022-08-23T01:27:51;20.80;99.90
14737;DHT22;7459;53.590;10.062;2022-08-23T01:30:21;20.80;99.90
14737;DHT22;7459;53.590;10.062;2022-08-23T01:32:52;20.80;99.90
14737;DHT22;7459;53.590;10.062;2022-08-23T01:35:28;20.80;99.90
14737;DHT22;7459;53.590;10.062;2022-08-23T01:37:56;20.80;99.90
14737;DHT22;7459;53.590;10.062;2022-08-23T01:40:22;20.80;99.90
14737;DHT22;7459;53.590;10.062;2022-08-23T01:42:48;20.80;99.90
14737;DHT22;7459;53.590;10.062;2022-08-23T01:45:14;20.80;99.90
14737;DHT22;7459;53.590;10.062;2022-08-23T01:47:41;20.80;99.90
14737;DHT22;7459;53.590;10.062;2022-08-23T01:50:08;20.80;99.90
14737;DHT22;7459;53.590;10.062;2022-08-23T01:52:37;20.70;99.90
14737;DHT22;7459;53.590;10.062;2022-08-23T01:55:04;20.70;99.90
14737;DHT22;7459;53.590;10.062;2022-08-23T01:57:31;20.70;99.90
14737;DHT22;7459;53.590;10.062;2022-08-23T01:59:57;20.70;99.90
14737;DHT22;7459;53.590;10.062;2022-08-23T02:04:59;20.70;99.90
14737;DHT22;7459;53.590;10.062;2022-08-23T02:07:26;20.70;99.90
14737;DHT22;7459;53.590;10.062;2022-08-23T02:09:52;20.70;99.90
14737;DHT22;7459;53.590;10.062;2022-08-23T02:12:18;20.70;99.90
14737;DHT22;7459;53.590;10.062;2022-08-23T02:14:44;20.70;99.90
14737;DHT22;7459;53.590;10.062;2022-08-23T02:17:09;20.70;99.90
14737;DHT22;7459;53.590;10.062;2022-08-23T02:19:37;20.70;99.90
14737;DHT22;7459;53.590;10.062;2022-08-23T02:22:05;20.70;99.90
14737;DHT22;7459;53.590;10.062;2022-08-23T02:24:32;20.70;99.90
14737;DHT22;7459;53.590;10.062;2022-08-23T02:27:01;20.70;99.90
14737;DHT22;7459;53.590;10.062;2022-08-23T02:29:29;20.60;99.90
14737;DHT22;7459;53.590;10.062;2022-08-23T02:31:56;20.70;99.90
14737;DHT22;7459;53.590;10.062;2022-08-23T02:34:22;20.70;99.90
14737;DHT22;7459;53.590;10.062;2022-08-23T02:36:49;20.60;99.90
14737;DHT22;7459;53.590;10.062;2022-08-23T02:39:16;20.60;99.90
14737;DHT22;7459;53.590;10.062;2022-08-23T02:41:42;20.60;99.90
14737;DHT22;7459;53.590;10.062;2022-08-23T02:44:08;20.60;99.90
14737;DHT22;7459;53.590;10.062;2022-08-23T02:46:35;20.60;99.90
14737;DHT22;7459;53.590;10.062;2022-08-23T02:49:02;20.60;99.90
14737;DHT22;7459;53.590;10.062;2022-08-23T02:51:28;20.50;99.90
14737;DHT22;7459;53.590;10.062;2022-08-23T02:53:54;20.50;99.90
14737;DHT22;7459;53.590;10.062;2022-08-23T02:56:20;20.50;99.90
14737;DHT22;7459;53.590;10.062;2022-08-23T02:58:45;20.50;99.90
14737;DHT22;7459;53.590;10.062;2022-08-23T03:01:16;20.50;99.90
14737;DHT22;7459;53.590;10.062;2022-08-23T03:03:49;20.40;99.90
14737;DHT22;7459;53.590;10.062;2022-08-23T03:06:16;20.40;99.90
14737;DHT22;7459;53.590;10.062;2022-08-23T03:08:43;20.40;99.90
14737;DHT22;7459;53.590;10.062;2022-08-23T03:11:15;20.40;99.90
14737;DHT22;7459;53.590;10.062;2022-08-23T03:13:42;20.40;99.90
14737;DHT22;7459;53.590;10.062;2022-08-23T03:16:10;20.40;99.90
14737;DHT22;7459;53.590;10.062;2022-08-23T03:18:36;20.50;99.90
14737;DHT22;7459;53.590;10.062;2022-08-23T03:21:04;20.40;99.90
14737;DHT22;7459;53.590;10.062;2022-08-23T03:23:31;20.40;99.90
14737;DHT22;7459;53.590;10.062;2022-08-23T03:26:00;20.40;99.90
14737;DHT22;7459;53.590;10.062;2022-08-23T03:28:27;20.40;99.90
14737;DHT22;7459;53.590;10.062;2022-08-23T03:30:54;20.40;99.90
14737;DHT22;7459;53.590;10.062;2022-08-23T03:33:20;20.40;99.90
14737;DHT22;7459;53.590;10.062;2022-08-23T03:35:46;20.40;99.90
14737;DHT22;7459;53.590;10.062;2022-08-23T03:38:12;20.30;99.90
14737;DHT22;7459;53.590;10.062;2022-08-23T03:40:39;20.30;99.90
14737;DHT22;7459;53.590;10.062;2022-08-23T03:43:05;20.30;99.90
14737;DHT22;7459;53.590;10.062;2022-08-23T03:45:31;20.30;99.90
14737;DHT22;7459;53.590;10.062;2022-08-23T03:47:57;20.30;99.90
14737;DHT22;7459;53.590;10.062;2022-08-23T03:50:23;20.30;99.90
14737;DHT22;7459;53.590;10.062;2022-08-23T03:52:49;20.30;99.90
14737;DHT22;7459;53.590;10.062;2022-08-23T03:55:15;20.20;99.90
14737;DHT22;7459;53.590;10.062;2022-08-23T03:57:41;20.30;99.90
14737;DHT22;7459;53.590;10.062;2022-08-23T04:00:10;20.20;99.90
14737;DHT22;7459;53.590;10.062;2022-08-23T04:02:38;20.20;99.90
14737;DHT22;7459;53.590;10.062;2022-08-23T04:05:04;20.20;99.90
14737;DHT22;7459;53.590;10.062;2022-08-23T04:07:32;20.20;99.90
14737;DHT22;7459;53.590;10.062;2022-08-23T04:10:00;20.20;99.90
14737;DHT22;7459;53.590;10.062;2022-08-23T04:12:26;20.20;99.90
14737;DHT22;7459;53.590;10.062;2022-08-23T04:14:51;20.30;99.90
14737;DHT22;7459;53.590;10.062;2022-08-23T04:17:18;20.30;99.90
14737;DHT22;7459;53.590;10.062;2022-08-23T04:19:45;20.30;99.90
14737;DHT22;7459;53.590;10.062;2022-08-23T04:22:12;20.30;99.90
14737;DHT22;7459;53.590;10.062;2022-08-23T04:24:40;20.30;99.90
14737;DHT22;7459;53.590;10.062;2022-08-23T04:27:06;20.40;99.90
14737;DHT22;7459;53.590;10.062;2022-08-23T04:29:32;20.30;99.90
14737;DHT22;7459;53.590;10.062;2022-08-23T04:31:58;20.30;99.90
14737;DHT22;7459;53.590;10.062;2022-08-23T04:34:24;20.30;99.90
14737;DHT22;7459;53.590;10.062;2022-08-23T04:36:52;20.30;99.90
14737;DHT22;7459;53.590;10.062;2022-08-23T04:39:18;20.30;99.90
14737;DHT22;7459;53.590;10.062;2022-08-23T04:41:43;20.30;99.90
14737;DHT22;7459;53.590;10.062;2022-08-23T04:44:27;20.30;99.90
14737;DHT22;7459;53.590;10.062;2022-08-23T04:46:53;20.40;99.90
14737;DHT22;7459;53.590;10.062;2022-08-23T04:49:19;20.40;99.90
14737;DHT22;7459;53.590;10.062;2022-08-23T04:51:47;20.40;99.90
14737;DHT22;7459;53.590;10.062;2022-08-23T04:54:13;20.40;99.90
14737;DHT22;7459;53.590;10.062;2022-08-23T04:56:39;20.40;99.90
14737;DHT22;7459;53.590;10.062;2022-08-23T04:59:05;20.30;99.90
14737;DHT22;7459;53.590;10.062;2022-08-23T05:01:30;20.40;99.90
14737;DHT22;7459;53.590;10.062;2022-08-23T05:03:56;20.40;99.90
14737;DHT22;7459;53.590;10.062;2022-08-23T05:06:22;20.40;99.90
14737;DHT22;7459;53.590;10.062;2022-08-23T05:08:49;20.30;99.90
14737;DHT22;7459;53.590;10.062;2022-08-23T05:11:14;20.30;99.90
14737;DHT22;7459;53.590;10.062;2022-08-23T05:13:40;20.30;99.90
14737;DHT22;7459;53.590;10.062;2022-08-23T05:16:07;20.30;99.90
14737;DHT22;7459;53.590;10.062;2022-08-23T05:18:32;20.20;99.90
14737;DHT22;7459;53.590;10.062;2022-08-23T05:20:59;20.20;99.90
14737;DHT22;7459;53.590;10.062;2022-08-23T05:23:25;20.20;99.90
14737;DHT22;7459;53.590;10.062;2022-08-23T05:25:53;20.20;99.90
14737;DHT22;7459;53.590;10.062;2022-08-23T05:28:23;20.20;99.90
14737;DHT22;7459;53.590;10.062;2022-08-23T05:31:04;20.20;99.90
14737;DHT22;7459;53.590;10.062;2022-08-23T05:33:33;20.20;99.90
14737;DHT22;7459;53.590;10.062;2022-08-23T05:36:00;20.20;99.90
14737;DHT22;7459;53.590;10.062;2022-08-23T05:38:27;20.20;99.90
14737;DHT22;7459;53.590;10.062;2022-08-23T05:40:54;20.30;99.90
14737;DHT22;7459;53.590;10.062;2022-08-23T05:43:23;20.30;99.90
14737;DHT22;7459;53.590;10.062;2022-08-23T05:46:06;20.40;99.90
14737;DHT22;7459;53.590;10.062;2022-08-23T05:48:35;20.40;99.90
14737;DHT22;7459;53.590;10.062;2022-08-23T05:53:43;20.50;99.90
14737;DHT22;7459;53.590;10.062;2022-08-23T05:58:38;20.50;99.90
14737;DHT22;7459;53.590;10.062;2022-08-23T06:01:04;20.50;99.90
14737;DHT22;7459;53.590;10.062;2022-08-23T06:03:30;20.60;99.90
14737;DHT22;7459;53.590;10.062;2022-08-23T06:05:58;20.60;99.90
14737;DHT22;7459;53.590;10.062;2022-08-23T06:08:24;20.60;99.90
14737;DHT22;7459;53.590;10.062;2022-08-23T06:11:02;20.70;99.90
14737;DHT22;7459;53.590;10.062;2022-08-23T06:13:29;20.70;99.90
14737;DHT22;7459;53.590;10.062;2022-08-23T06:15:56;20.70;99.90
14737;DHT22;7459;53.590;10.062;2022-08-23T06:18:23;20.70;99.90
14737;DHT22;7459;53.590;10.062;2022-08-23T06:20:58;20.70;99.90
14737;DHT22;7459;53.590;10.062;2022-08-23T06:23:28;20.70;99.90
14737;DHT22;7459;53.590;10.062;2022-08-23T06:25:53;20.70;99.90
14737;DHT22;7459;53.590;10.062;2022-08-23T06:28:19;20.70;99.90
14737;DHT22;7459;53.590;10.062;2022-08-23T06:30:45;20.70;99.90
14737;DHT22;7459;53.590;10.062;2022-08-23T06:33:13;20.70;99.90
14737;DHT22;7459;53.590;10.062;2022-08-23T06:35:39;20.70;99.90
14737;DHT22;7459;53.590;10.062;2022-08-23T06:38:06;20.70;99.90
14737;DHT22;7459;53.590;10.062;2022-08-23T06:40:33;20.80;99.90
14737;DHT22;7459;53.590;10.062;2022-08-23T06:42:59;20.80;99.90
14737;DHT22;7459;53.590;10.062;2022-08-23T06:45:25;20.80;99.90
14737;DHT22;7459;53.590;10.062;2022-08-23T06:47:51;20.80;99.90
14737;DHT22;7459;53.590;10.062;2022-08-23T06:50:17;20.80;99.90
14737;DHT22;7459;53.590;10.062;2022-08-23T06:52:46;20.90;99.90
14737;DHT22;7459;53.590;10.062;2022-08-23T06:55:13;21.00;99.90
14737;DHT22;7459;53.590;10.062;2022-08-23T06:57:39;21.10;99.90
14737;DHT22;7459;53.590;10.062;2022-08-23T07:00:06;21.10;99.90
14737;DHT22;7459;53.590;10.062;2022-08-23T07:02:34;21.10;99.90
14737;DHT22;7459;53.590;10.062;2022-08-23T07:05:00;21.20;99.90
14737;DHT22;7459;53.590;10.062;2022-08-23T07:07:26;21.30;99.90
14737;DHT22;7459;53.590;10.062;2022-08-23T07:09:51;21.30;99.90
14737;DHT22;7459;53.590;10.062;2022-08-23T07:12:17;21.40;99.90
14737;DHT22;7459;53.590;10.062;2022-08-23T07:14:44;21.40;99.90
14737;DHT22;7459;53.590;10.062;2022-08-23T07:17:11;21.40;99.90
14737;DHT22;7459;53.590;10.062;2022-08-23T07:19:39;21.50;99.90
14737;DHT22;7459;53.590;10.062;2022-08-23T07:22:08;21.50;99.90
14737;DHT22;7459;53.590;10.062;2022-08-23T07:24:35;21.50;99.90
14737;DHT22;7459;53.590;10.062;2022-08-23T07:27:03;21.50;99.90
14737;DHT22;7459;53.590;10.062;2022-08-23T07:29:31;21.60;99.90
14737;DHT22;7459;53.590;10.062;2022-08-23T07:31:57;21.60;99.90
14737;DHT22;7459;53.590;10.062;2022-08-23T07:34:24;21.70;99.90
14737;DHT22;7459;53.590;10.062;2022-08-23T07:36:53;21.70;99.90
14737;DHT22;7459;53.590;10.062;2022-08-23T07:39:20;21.80;99.90
14737;DHT22;7459;53.590;10.062;2022-08-23T07:41:47;21.80;99.90
14737;DHT22;7459;53.590;10.062;2022-08-23T07:44:13;21.80;99.90
14737;DHT22;7459;53.590;10.062;2022-08-23T07:46:41;21.80;99.90
14737;DHT22;7459;53.590;10.062;2022-08-23T07:49:10;21.90;99.90
14737;DHT22;7459;53.590;10.062;2022-08-23T07:51:38;21.90;99.90
14737;DHT22;7459;53.590;10.062;2022-08-23T07:54:08;21.90;99.90
14737;DHT22;7459;53.590;10.062;2022-08-23T07:56:35;21.90;99.90
14737;DHT22;7459;53.590;10.062;2022-08-23T07:59:01;22.00;99.90
14737;DHT22;7459;53.590;10.062;2022-08-23T08:01:28;22.00;99.90
14737;DHT22;7459;53.590;10.062;2022-08-23T08:03:57;22.10;99.90
14737;DHT22;7459;53.590;10.062;2022-08-23T08:08:51;22.20;99.90
14737;DHT22;7459;53.590;10.062;2022-08-23T08:11:20;22.20;99.90
14737;DHT22;7459;53.590;10.062;2022-08-23T08:13:48;22.30;99.90
14737;DHT22;7459;53.590;10.062;2022-08-23T08:16:27;22.30;99.90
14737;DHT22;7459;53.590;10.062;2022-08-23T08:18:57;22.30;99.90
14737;DHT22;7459;53.590;10.062;2022-08-23T08:21:24;22.40;99.90
14737;DHT22;7459;53.590;10.062;2022-08-23T08:23:51;22.40;99.90
14737;DHT22;7459;53.590;10.062;2022-08-23T08:26:17;22.40;99.90
14737;DHT22;7459;53.590;10.062;2022-08-23T08:28:45;22.50;99.90
14737;DHT22;7459;53.590;10.062;2022-08-23T08:31:11;22.50;99.90
14737;DHT22;7459;53.590;10.062;2022-08-23T08:33:38;22.60;99.90
14737;DHT22;7459;53.590;10.062;2022-08-23T08:36:05;22.60;99.90
14737;DHT22;7459;53.590;10.062;2022-08-23T08:38:33;22.60;99.90
14737;DHT22;7459;53.590;10.062;2022-08-23T08:41:17;22.60;99.90
14737;DHT22;7459;53.590;10.062;2022-08-23T08:44:07;22.70;99.90
14737;DHT22;7459;53.590;10.062;2022-08-23T08:46:42;22.70;99.90
14737;DHT22;7459;53.590;10.062;2022-08-23T08:49:41;22.80;99.90
14737;DHT22;7459;53.590;10.062;2022-08-23T08:55:11;22.90;99.90
14737;DHT22;7459;53.590;10.062;2022-08-23T08:57:48;23.00;99.90
14737;DHT22;7459;53.590;10.062;2022-08-23T09:00:23;23.00;99.90
14737;DHT22;7459;53.590;10.062;2022-08-23T09:02:51;23.00;99.90
14737;DHT22;7459;53.590;10.062;2022-08-23T09:05:21;23.00;99.90
14737;DHT22;7459;53.590;10.062;2022-08-23T09:13:59;23.20;99.90
14737;DHT22;7459;53.590;10.062;2022-08-23T09:19:45;23.20;99.90
14737;DHT22;7459;53.590;10.062;2022-08-23T09:22:19;23.20;99.90
14737;DHT22;7459;53.590;10.062;2022-08-23T09:24:52;23.20;99.90
14737;DHT22;7459;53.590;10.062;2022-08-23T09:27:18;23.30;99.90
14737;DHT22;7459;53.590;10.062;2022-08-23T09:29:57;23.30;99.90
14737;DHT22;7459;53.590;10.062;2022-08-23T09:32:34;23.40;99.90
14737;DHT22;7459;53.590;10.062;2022-08-23T09:37:48;23.50;99.90
14737;DHT22;7459;53.590;10.062;2022-08-23T09:40:36;23.50;99.90
14737;DHT22;7459;53.590;10.062;2022-08-23T09:45:51;23.50;99.90
14737;DHT22;7459;53.590;10.062;2022-08-23T09:56:50;23.70;99.90
14737;DHT22;7459;53.590;10.062;2022-08-23T10:01:55;23.80;99.90
14737;DHT22;7459;53.590;10.062;2022-08-23T10:04:44;23.80;99.90
14737;DHT22;7459;53.590;10.062;2022-08-23T10:07:40;23.90;99.90
14737;DHT22;7459;53.590;10.062;2022-08-23T10:10:27;23.90;99.90
14737;DHT22;7459;53.590;10.062;2022-08-23T10:12:57;23.90;99.90
14737;DHT22;7459;53.590;10.062;2022-08-23T10:18:31;24.00;99.90
14737;DHT22;7459;53.590;10.062;2022-08-23T10:21:39;24.00;99.90
14737;DHT22;7459;53.590;10.062;2022-08-23T10:24:23;24.10;99.90
14737;DHT22;7459;53.590;10.062;2022-08-23T10:30:16;24.10;99.90
14737;DHT22;7459;53.590;10.062;2022-08-23T10:32:50;24.20;99.90
14737;DHT22;7459;53.590;10.062;2022-08-23T10:35:27;24.20;99.90
14737;DHT22;7459;53.590;10.062;2022-08-23T10:44:59;24.40;99.90
14737;DHT22;7459;53.590;10.062;2022-08-23T10:50:27;24.50;99.00
14737;DHT22;7459;53.590;10.062;2022-08-23T10:53:08;24.50;99.30
14737;DHT22;7459;53.590;10.062;2022-08-23T10:55:46;24.60;99.80
14737;DHT22;7459;53.590;10.062;2022-08-23T10:59:12;24.70;99.20
14737;DHT22;7459;53.590;10.062;2022-08-23T11:07:34;24.90;99.30
14737;DHT22;7459;53.590;10.062;2022-08-23T11:13:17;25.10;97.40
14737;DHT22;7459;53.590;10.062;2022-08-23T11:15:58;25.10;97.60
14737;DHT22;7459;53.590;10.062;2022-08-23T11:32:06;25.50;97.80
14737;DHT22;7459;53.590;10.062;2022-08-23T11:42:47;25.80;97.20
14737;DHT22;7459;53.590;10.062;2022-08-23T11:48:20;26.00;97.40
14737;DHT22;7459;53.590;10.062;2022-08-23T11:54:46;26.10;95.70
14737;DHT22;7459;53.590;10.062;2022-08-23T11:57:51;26.20;96.30
14737;DHT22;7459;53.590;10.062;2022-08-23T12:03:24;26.40;96.30
14737;DHT22;7459;53.590;10.062;2022-08-23T12:06:14;26.40;96.00
14737;DHT22;7459;53.590;10.062;2022-08-23T12:14:37;26.70;94.40
14737;DHT22;7459;53.590;10.062;2022-08-23T12:19:44;26.80;93.90
14737;DHT22;7459;53.590;10.062;2022-08-23T12:22:19;26.80;93.40
14737;DHT22;7459;53.590;10.062;2022-08-23T12:25:05;26.90;94.00
14737;DHT22;7459;53.590;10.062;2022-08-23T12:27:42;27.00;94.10
14737;DHT22;7459;53.590;10.062;2022-08-23T12:30:30;27.10;94.00
14737;DHT22;7459;53.590;10.062;2022-08-23T12:33:12;27.10;93.90
14737;DHT22;7459;53.590;10.062;2022-08-23T12:42:11;27.30;93.00
14737;DHT22;7459;53.590;10.062;2022-08-23T12:44:41;27.40;93.50
14737;DHT22;7459;53.590;10.062;2022-08-23T12:47:19;27.50;93.60
14737;DHT22;7459;53.590;10.062;2022-08-23T12:49:55;27.50;93.00
14737;DHT22;7459;53.590;10.062;2022-08-23T12:52:36;27.60;93.00
14737;DHT22;7459;53.590;10.062;2022-08-23T12:55:14;27.70;92.80
14737;DHT22;7459;53.590;10.062;2022-08-23T12:57:50;27.70;92.10
14737;DHT22;7459;53.590;10.062;2022-08-23T13:00:32;27.80;92.00
14737;DHT22;7459;53.590;10.062;2022-08-23T13:03:19;27.80;91.80
14737;DHT22;7459;53.590;10.062;2022-08-23T13:05:54;27.80;92.20
14737;DHT22;7459;53.590;10.062;2022-08-23T13:08:26;27.90;92.50
14737;DHT22;7459;53.590;10.062;2022-08-23T13:10:56;27.90;92.40
14737;DHT22;7459;53.590;10.062;2022-08-23T13:13:24;28.00;92.10
14737;DHT22;7459;53.590;10.062;2022-08-23T13:15:52;27.90;92.30
14737;DHT22;7459;53.590;10.062;2022-08-23T13:18:40;28.00;92.20
14737;DHT22;7459;53.590;10.062;2022-08-23T13:23:48;28.00;92.20
14737;DHT22;7459;53.590;10.062;2022-08-23T13:26:47;28.00;91.90
14737;DHT22;7459;53.590;10.062;2022-08-23T13:37:29;28.20;91.60
14737;DHT22;7459;53.590;10.062;2022-08-23T13:40:00;28.20;91.60
14737;DHT22;7459;53.590;10.062;2022-08-23T13:42:40;28.20;92.40
14737;DHT22;7459;53.590;10.062;2022-08-23T13:45:15;28.10;91.70
14737;DHT22;7459;53.590;10.062;2022-08-23T13:47:55;28.10;91.60
14737;DHT22;7459;53.590;10.062;2022-08-23T13:50:30;28.10;91.70
14737;DHT22;7459;53.590;10.062;2022-08-23T13:52:58;28.20;91.70
14737;DHT22;7459;53.590;10.062;2022-08-23T13:55:25;28.20;91.20
14737;DHT22;7459;53.590;10.062;2022-08-23T13:57:52;28.10;91.40
14737;DHT22;7459;53.590;10.062;2022-08-23T14:00:19;28.10;91.30
14737;DHT22;7459;53.590;10.062;2022-08-23T14:02:45;28.10;91.20
14737;DHT22;7459;53.590;10.062;2022-08-23T14:05:20;28.10;91.20
14737;DHT22;7459;53.590;10.062;2022-08-23T14:07:47;28.10;90.90
14737;DHT22;7459;53.590;10.062;2022-08-23T14:10:18;28.10;90.70
14737;DHT22;7459;53.590;10.062;2022-08-23T14:12:47;28.10;90.80
14737;DHT22;7459;53.590;10.062;2022-08-23T14:15:15;28.10;91.00
14737;DHT22;7459;53.590;10.062;2022-08-23T14:17:43;28.20;91.20
14737;DHT22;7459;53.590;10.062;2022-08-23T14:20:11;28.20;91.00
14737;DHT22;7459;53.590;10.062;2022-08-23T14:22:38;28.10;90.50
14737;DHT22;7459;53.590;10.062;2022-08-23T14:25:05;28.10;90.80
14737;DHT22;7459;53.590;10.062;2022-08-23T14:27:32;28.10;91.10
14737;DHT22;7459;53.590;10.062;2022-08-23T14:29:59;28.00;91.10
14737;DHT22;7459;53.590;10.062;2022-08-23T14:32:25;28.00;91.10
14737;DHT22;7459;53.590;10.062;2022-08-23T14:34:52;28.00;90.80
14737;DHT22;7459;53.590;10.062;2022-08-23T14:37:18;28.00;90.50
14737;DHT22;7459;53.590;10.062;2022-08-23T14:39:44;27.90;91.00
14737;DHT22;7459;53.590;10.062;2022-08-23T14:42:11;27.90;91.20
14737;DHT22;7459;53.590;10.062;2022-08-23T14:44:37;27.90;90.80
14737;DHT22;7459;53.590;10.062;2022-08-23T14:47:04;27.80;90.30
14737;DHT22;7459;53.590;10.062;2022-08-23T14:49:30;27.80;90.10
14737;DHT22;7459;53.590;10.062;2022-08-23T14:51:56;27.80;90.20
14737;DHT22;7459;53.590;10.062;2022-08-23T14:54:23;27.80;90.00
14737;DHT22;7459;53.590;10.062;2022-08-23T14:56:51;27.80;90.30
14737;DHT22;7459;53.590;10.062;2022-08-23T14:59:17;27.70;90.40
14737;DHT22;7459;53.590;10.062;2022-08-23T15:01:43;27.70;90.20
14737;DHT22;7459;53.590;10.062;2022-08-23T15:04:09;27.70;90.50
14737;DHT22;7459;53.590;10.062;2022-08-23T15:06:35;27.70;90.20
14737;DHT22;7459;53.590;10.062;2022-08-23T15:09:05;27.70;90.50
14737;DHT22;7459;53.590;10.062;2022-08-23T15:11:30;27.70;90.20
14737;DHT22;7459;53.590;10.062;2022-08-23T15:13:56;27.70;90.40
14737;DHT22;7459;53.590;10.062;2022-08-23T15:16:24;27.70;90.90
14737;DHT22;7459;53.590;10.062;2022-08-23T15:18:51;27.70;90.50
14737;DHT22;7459;53.590;10.062;2022-08-23T15:21:18;27.70;90.00
14737;DHT22;7459;53.590;10.062;2022-08-23T15:23:45;27.70;90.20
14737;DHT22;7459;53.590;10.062;2022-08-23T15:26:12;27.70;90.50
14737;DHT22;7459;53.590;10.062;2022-08-23T15:28:40;27.70;90.20
14737;DHT22;7459;53.590;10.062;2022-08-23T15:31:06;27.80;90.00
14737;DHT22;7459;53.590;10.062;2022-08-23T15:33:33;27.90;89.90
14737;DHT22;7459;53.590;10.062;2022-08-23T15:35:59;28.00;89.60
14737;DHT22;7459;53.590;10.062;2022-08-23T15:38:26;28.00;90.10
14737;DHT22;7459;53.590;10.062;2022-08-23T15:40:53;28.00;90.10
14737;DHT22;7459;53.590;10.062;2022-08-23T15:43:20;28.10;90.00
14737;DHT22;7459;53.590;10.062;2022-08-23T15:45:46;28.30;90.00
14737;DHT22;7459;53.590;10.062;2022-08-23T15:48:27;28.40;88.80
14737;DHT22;7459;53.590;10.062;2022-08-23T15:50:57;28.80;88.70
14737;DHT22;7459;53.590;10.062;2022-08-23T15:53:23;28.70;88.90
14737;DHT22;7459;53.590;10.062;2022-08-23T15:55:49;28.60;89.30
14737;DHT22;7459;53.590;10.062;2022-08-23T15:58:24;28.40;89.70
14737;DHT22;7459;53.590;10.062;2022-08-23T16:00:51;28.30;89.50
14737;DHT22;7459;53.590;10.062;2022-08-23T16:03:19;28.20;89.70
14737;DHT22;7459;53.590;10.062;2022-08-23T16:05:47;28.20;89.40
14737;DHT22;7459;53.590;10.062;2022-08-23T16:08:29;28.40;89.60
14737;DHT22;7459;53.590;10.062;2022-08-23T16:10:57;30.00;89.20
14737;DHT22;7459;53.590;10.062;2022-08-23T16:13:24;29.90;88.10
14737;DHT22;7459;53.590;10.062;2022-08-23T16:15:50;29.50;89.50
14737;DHT22;7459;53.590;10.062;2022-08-23T16:18:16;29.10;89.00
14737;DHT22;7459;53.590;10.062;2022-08-23T16:20:43;28.70;88.70
14737;DHT22;7459;53.590;10.062;2022-08-23T16:23:10;28.70;89.40
14737;DHT22;7459;53.590;10.062;2022-08-23T16:25:36;29.60;89.60
14737;DHT22;7459;53.590;10.062;2022-08-23T16:28:03;30.60;88.20
14737;DHT22;7459;53.590;10.062;2022-08-23T16:30:29;30.60;86.80
14737;DHT22;7459;53.590;10.062;2022-08-23T16:32:56;30.20;86.90
14737;DHT22;7459;53.590;10.062;2022-08-23T16:35:22;29.80;88.20
14737;DHT22;7459;53.590;10.062;2022-08-23T16:37:48;29.20;89.10
14737;DHT22;7459;53.590;10.062;2022-08-23T16:40:14;28.90;88.90
14737;DHT22;7459;53.590;10.062;2022-08-23T16:42:41;28.60;90.00
14737;DHT22;7459;53.590;10.062;2022-08-23T16:45:08;28.30;90.00
14737;DHT22;7459;53.590;10.062;2022-08-23T16:47:40;28.10;90.10
14737;DHT22;7459;53.590;10.062;2022-08-23T16:50:09;27.80;90.40
14737;DHT22;7459;53.590;10.062;2022-08-23T16:52:35;27.70;90.60
14737;DHT22;7459;53.590;10.062;2022-08-23T16:55:03;27.50;90.60
14737;DHT22;7459;53.590;10.062;2022-08-23T16:57:30;27.40;90.60
14737;DHT22;7459;53.590;10.062;2022-08-23T16:59:56;27.30;91.30
14737;DHT22;7459;53.590;10.062;2022-08-23T17:02:31;27.20;91.00
14737;DHT22;7459;53.590;10.062;2022-08-23T17:04:58;27.10;91.20
14737;DHT22;7459;53.590;10.062;2022-08-23T17:07:24;27.10;91.30
14737;DHT22;7459;53.590;10.062;2022-08-23T17:09:50;27.00;91.50
14737;DHT22;7459;53.590;10.062;2022-08-23T17:12:16;26.90;91.60
14737;DHT22;7459;53.590;10.062;2022-08-23T17:14:43;26.80;91.70
14737;DHT22;7459;53.590;10.062;2022-08-23T17:17:12;26.80;91.60
14737;DHT22;7459;53.590;10.062;2022-08-23T17:19:39;26.70;91.80
14737;DHT22;7459;53.590;10.062;2022-08-23T17:22:05;26.70;92.00
14737;DHT22;7459;53.590;10.062;2022-08-23T17:24:31;26.70;92.20
14737;DHT22;7459;53.590;10.062;2022-08-23T17:26:57;26.70;92.30
14737;DHT22;7459;53.590;10.062;2022-08-23T17:29:23;26.60;92.30
14737;DHT22;7459;53.590;10.062;2022-08-23T17:31:49;26.60;92.40
14737;DHT22;7459;53.590;10.062;2022-08-23T17:34:14;26.50;92.20
14737;DHT22;7459;53.590;10.062;2022-08-23T17:36:47;26.50;92.30
14737;DHT22;7459;53.590;10.062;2022-08-23T17:39:21;26.40;92.40
14737;DHT22;7459;53.590;10.062;2022-08-23T17:41:51;26.40;92.60
14737;DHT22;7459;53.590;10.062;2022-08-23T17:44:17;26.40;92.80
14737;DHT22;7459;53.590;10.062;2022-08-23T17:46:45;26.30;92.80
14737;DHT22;7459;53.590;10.062;2022-08-23T17:49:12;26.30;92.70
14737;DHT22;7459;53.590;10.062;2022-08-23T17:51:40;26.20;92.70
14737;DHT22;7459;53.590;10.062;2022-08-23T17:54:07;26.20;92.80
14737;DHT22;7459;53.590;10.062;2022-08-23T17:56:34;26.10;92.90
14737;DHT22;7459;53.590;10.062;2022-08-23T17:59:01;26.10;92.90